createdAt,value
2017-10-07T00:02:36.580Z,96.00
2017-10-07T00:05:48.436Z,95.90
2017-10-07T00:09:00.896Z,96.10
2017-10-07T00:12:12.982Z,96.10
2017-10-07T00:15:23.974Z,96.10
2017-10-07T00:18:35.404Z,96.40
2017-10-07T00:21:45.461Z,96.40
2017-10-07T00:24:57.388Z,96.40
2017-10-07T00:28:07.893Z,96.30
2017-10-07T00:31:19.004Z,96.30
2017-10-07T00:34:31.361Z,96.20
2017-10-07T00:37:44.036Z,96.40
2017-10-07T00:40:54.542Z,96.40
2017-10-07T00:44:05.914Z,96.20
2017-10-07T00:47:18.884Z,95.90
2017-10-07T00:50:30.894Z,96.10
2017-10-07T00:53:44.699Z,96.10
2017-10-07T00:56:55.641Z,96.10
2017-10-07T01:00:06.555Z,95.90
2017-10-07T01:03:17.444Z,96.00
2017-10-07T01:06:27.763Z,96.00
2017-10-07T01:09:40.761Z,96.10
2017-10-07T01:12:51.784Z,96.20
2017-10-07T01:16:03.073Z,96.30
2017-10-07T01:19:15.211Z,96.30
2017-10-07T01:22:26.771Z,97.20
2017-10-07T01:25:39.187Z,96.30
2017-10-07T01:28:52.424Z,96.10
2017-10-07T01:32:03.959Z,96.40
2017-10-07T01:35:14.981Z,96.50
2017-10-07T01:38:26.910Z,96.60
2017-10-07T01:41:41.724Z,96.30
2017-10-07T01:44:52.636Z,96.50
2017-10-07T01:48:04.849Z,96.40
2017-10-07T01:51:16.518Z,96.60
2017-10-07T01:54:27.112Z,96.70
2017-10-07T01:57:38.873Z,96.60
2017-10-07T02:00:49.518Z,96.70
2017-10-07T02:04:00.847Z,96.80
2017-10-07T02:07:11.940Z,96.90
2017-10-07T02:10:22.306Z,97.00
2017-10-07T02:13:34.954Z,97.20
2017-10-07T02:16:46.182Z,97.20
2017-10-07T02:19:57.049Z,99.90
2017-10-07T02:23:09.757Z,97.40
2017-10-07T02:26:19.899Z,97.50
2017-10-07T02:29:31.945Z,97.50
2017-10-07T02:32:44.637Z,97.50
2017-10-07T02:35:56.413Z,97.10
2017-10-07T02:39:07.697Z,97.60
2017-10-07T02:42:21.228Z,97.30
2017-10-07T02:45:33.775Z,97.20
2017-10-07T02:48:44.429Z,97.20
2017-10-07T02:51:57.199Z,96.90
2017-10-07T02:55:08.190Z,97.10
2017-10-07T02:58:19.203Z,97.00
2017-10-07T03:01:35.034Z,96.80
2017-10-07T03:04:45.177Z,96.90
2017-10-07T03:07:56.465Z,96.90
2017-10-07T03:11:08.855Z,96.80
2017-10-07T03:14:19.783Z,96.70
2017-10-07T03:17:31.342Z,96.50
2017-10-07T03:20:42.605Z,96.50
2017-10-07T03:23:54.563Z,96.30
2017-10-07T03:27:05.371Z,96.30
2017-10-07T03:30:15.588Z,96.30
2017-10-07T03:33:27.006Z,96.00
2017-10-07T03:36:38.752Z,96.10
2017-10-07T03:39:50.324Z,96.20
2017-10-07T03:43:02.029Z,96.10
2017-10-07T03:46:12.835Z,96.10
2017-10-07T03:49:23.887Z,95.80
2017-10-07T03:52:35.537Z,96.00
2017-10-07T03:55:46.081Z,95.90
2017-10-07T03:58:57.395Z,95.80
2017-10-07T04:02:09.494Z,95.70
2017-10-07T04:05:19.987Z,95.70
2017-10-07T04:08:33.069Z,95.50
2017-10-07T04:11:45.757Z,95.80
2017-10-07T04:14:56.878Z,95.90
2017-10-07T04:18:06.838Z,95.90
2017-10-07T04:21:17.484Z,96.00
2017-10-07T04:24:28.443Z,95.60
2017-10-07T04:27:38.436Z,95.60
2017-10-07T04:30:49.895Z,95.60
2017-10-07T04:33:59.941Z,95.60
2017-10-07T04:37:10.712Z,95.60
2017-10-07T04:40:20.647Z,95.60
2017-10-07T04:43:32.176Z,95.70
2017-10-07T04:46:42.045Z,95.70
2017-10-07T04:49:51.856Z,95.40
2017-10-07T04:53:01.702Z,95.50
2017-10-07T04:56:12.316Z,95.50
2017-10-07T04:59:22.149Z,95.20
2017-10-07T05:02:33.693Z,95.20
2017-10-07T05:05:43.753Z,95.30
2017-10-07T05:08:54.267Z,95.20
2017-10-07T05:12:05.473Z,95.30
2017-10-07T05:15:16.792Z,95.20
2017-10-07T05:18:27.749Z,95.10
2017-10-07T05:21:37.970Z,95.10
2017-10-07T05:24:47.861Z,95.20
2017-10-07T05:27:57.702Z,95.20
2017-10-07T05:31:07.523Z,95.10
2017-10-07T05:34:17.364Z,94.70
2017-10-07T05:37:27.233Z,95.00
2017-10-07T05:40:37.797Z,94.90
2017-10-07T05:43:48.488Z,94.70
2017-10-07T05:46:59.189Z,94.70
2017-10-07T05:50:08.981Z,94.50
2017-10-07T05:53:18.929Z,94.30
2017-10-07T05:56:29.643Z,94.30
2017-10-07T05:59:41.114Z,94.40
2017-10-07T06:02:51.228Z,94.30
2017-10-07T06:06:01.219Z,94.50
2017-10-07T06:09:12.894Z,94.40
2017-10-07T06:12:23.731Z,94.40
2017-10-07T06:15:33.573Z,94.20
2017-10-07T06:18:44.078Z,94.10
2017-10-07T06:21:53.936Z,94.40
2017-10-07T06:25:03.873Z,94.00
2017-10-07T06:28:14.478Z,93.90
2017-10-07T06:31:24.377Z,93.90
2017-10-07T06:34:34.172Z,94.10
2017-10-07T06:37:44.888Z,94.20
2017-10-07T06:40:55.568Z,94.50
2017-10-07T06:44:06.334Z,95.20
2017-10-07T06:47:16.179Z,96.10
2017-10-07T06:50:28.914Z,95.40
2017-10-07T06:53:39.000Z,95.70
2017-10-07T06:56:49.892Z,96.50
2017-10-07T07:00:00.593Z,96.00
2017-10-07T07:03:11.775Z,96.40
2017-10-07T07:06:21.541Z,96.40
2017-10-07T07:09:32.342Z,96.60
2017-10-07T07:15:53.722Z,96.20
2017-10-07T07:19:04.358Z,96.50
2017-10-07T07:22:15.141Z,96.70
2017-10-07T07:25:25.493Z,96.70
2017-10-07T07:28:36.229Z,96.60
2017-10-07T07:31:47.238Z,96.00
2017-10-07T07:34:57.481Z,96.20
2017-10-07T07:38:08.771Z,96.20
2017-10-07T07:41:18.882Z,96.20
2017-10-07T07:44:29.523Z,96.30
2017-10-07T07:47:40.127Z,96.10
2017-10-07T07:50:50.751Z,96.20
2017-10-07T07:54:00.721Z,96.20
2017-10-07T07:57:10.522Z,96.00
2017-10-07T08:00:20.828Z,96.50
2017-10-07T08:03:30.836Z,96.70
2017-10-07T08:06:40.657Z,96.40
2017-10-07T08:09:51.352Z,97.10
2017-10-07T08:13:02.965Z,97.20
2017-10-07T08:16:14.118Z,96.90
2017-10-07T08:19:26.151Z,96.80
2017-10-07T08:22:39.697Z,96.90
2017-10-07T08:25:49.755Z,97.00
2017-10-07T08:29:00.338Z,97.00
2017-10-07T08:32:11.795Z,97.10
2017-10-07T08:35:21.855Z,97.60
2017-10-07T08:38:32.619Z,97.40
2017-10-07T08:41:44.298Z,97.30
2017-10-07T08:44:54.134Z,96.80
2017-10-07T08:48:04.878Z,96.90
2017-10-07T08:51:16.448Z,97.50
2017-10-07T08:54:26.386Z,97.50
2017-10-07T08:57:36.151Z,97.20
2017-10-07T09:00:46.909Z,96.80
2017-10-07T09:03:58.121Z,96.80
2017-10-07T09:07:08.829Z,95.80
2017-10-07T09:10:20.736Z,95.30
2017-10-07T09:13:30.978Z,95.50
2017-10-07T09:16:40.746Z,95.30
2017-10-07T09:19:50.549Z,95.40
2017-10-07T09:23:00.287Z,94.40
2017-10-07T09:26:10.165Z,93.80
2017-10-07T09:29:20.051Z,93.20
2017-10-07T09:32:30.766Z,94.30
2017-10-07T09:35:42.178Z,94.00
2017-10-07T09:38:52.048Z,94.00
2017-10-07T09:42:02.297Z,93.70
2017-10-07T09:45:12.368Z,93.90
2017-10-07T09:48:23.632Z,93.40
2017-10-07T09:51:33.812Z,93.50
2017-10-07T09:54:44.535Z,93.20
2017-10-07T09:57:55.381Z,94.00
2017-10-07T10:01:05.546Z,93.80
2017-10-07T10:04:16.020Z,93.20
2017-10-07T10:07:26.554Z,93.40
2017-10-07T10:10:36.483Z,93.70
2017-10-07T10:13:50.985Z,93.30
2017-10-07T10:17:00.976Z,93.80
2017-10-07T10:20:11.865Z,93.20
2017-10-07T10:23:23.513Z,94.00
2017-10-07T10:26:34.226Z,93.90
2017-10-07T10:29:45.104Z,93.20
2017-10-07T10:32:55.899Z,93.20
2017-10-07T10:36:06.764Z,93.40
2017-10-07T10:39:16.627Z,93.50
2017-10-07T10:42:28.382Z,92.80
2017-10-07T10:45:38.232Z,92.90
2017-10-07T10:48:49.896Z,91.30
2017-10-07T10:55:12.629Z,90.50
2017-10-07T10:58:23.243Z,90.40
2017-10-07T11:01:34.688Z,89.40
2017-10-07T11:04:46.285Z,89.20
2017-10-07T11:07:57.765Z,86.50
2017-10-07T11:11:07.942Z,86.50
2017-10-07T11:14:19.168Z,85.70
2017-10-07T11:17:29.183Z,85.70
2017-10-07T11:20:39.065Z,85.00
2017-10-07T11:23:49.629Z,82.70
2017-10-07T11:27:00.181Z,82.60
2017-10-07T11:30:11.192Z,80.90
2017-10-07T11:33:22.456Z,79.40
2017-10-07T11:36:33.151Z,79.90
2017-10-07T11:39:43.178Z,81.50
2017-10-07T11:42:55.040Z,81.70
2017-10-07T11:46:05.552Z,82.40
2017-10-07T11:49:14.801Z,82.00
2017-10-07T11:52:28.007Z,81.60
2017-10-07T11:55:39.516Z,80.60
2017-10-07T11:58:49.604Z,80.70
2017-10-07T12:01:59.524Z,79.70
2017-10-07T12:05:10.253Z,78.40
2017-10-07T12:08:21.351Z,81.00
2017-10-07T12:11:31.890Z,80.80
2017-10-07T12:14:42.459Z,78.60
2017-10-07T12:17:53.246Z,80.10
2017-10-07T12:21:05.714Z,79.10
2017-10-07T12:24:15.698Z,79.60
2017-10-07T12:27:27.284Z,79.60
2017-10-07T12:30:37.406Z,79.50
2017-10-07T12:33:48.968Z,78.70
2017-10-07T12:37:00.049Z,78.00
2017-10-07T12:40:13.765Z,78.00
2017-10-07T12:43:24.990Z,80.10
2017-10-07T12:46:35.257Z,79.00
2017-10-07T12:49:47.184Z,79.90
2017-10-07T12:52:58.306Z,80.40
2017-10-07T12:56:09.565Z,80.10
2017-10-07T12:59:19.898Z,80.10
2017-10-07T13:02:30.605Z,82.10
2017-10-07T13:05:41.244Z,79.80
2017-10-07T13:08:52.733Z,80.80
2017-10-07T13:12:02.538Z,80.80
2017-10-07T13:15:13.484Z,82.70
2017-10-07T13:18:23.304Z,82.50
2017-10-07T13:21:34.143Z,81.60
2017-10-07T13:24:45.464Z,82.70
2017-10-07T13:27:56.479Z,83.10
2017-10-07T13:31:06.334Z,83.10
2017-10-07T13:34:16.021Z,81.90
2017-10-07T13:37:25.940Z,81.50
2017-10-07T13:40:35.937Z,81.20
2017-10-07T13:43:46.667Z,81.90
2017-10-07T13:46:57.551Z,81.60
2017-10-07T13:50:08.366Z,82.70
2017-10-07T13:53:19.491Z,81.50
2017-10-07T13:56:29.981Z,82.20
2017-10-07T13:59:40.097Z,82.20
2017-10-07T14:02:50.888Z,83.20
2017-10-07T14:09:13.250Z,81.50
2017-10-07T14:12:23.975Z,81.20
2017-10-07T14:15:33.883Z,81.50
2017-10-07T14:18:44.700Z,82.10
2017-10-07T14:21:55.458Z,82.80
2017-10-07T14:25:06.158Z,82.80
2017-10-07T14:28:16.168Z,82.80
2017-10-07T14:31:26.087Z,82.10
2017-10-07T14:34:36.842Z,80.60
2017-10-07T14:37:47.465Z,81.90
2017-10-07T14:40:57.366Z,80.70
2017-10-07T14:44:07.298Z,79.00
2017-10-07T14:47:17.253Z,79.50
2017-10-07T14:50:27.923Z,80.60
2017-10-07T14:53:39.325Z,81.10
2017-10-07T14:56:49.471Z,80.20
2017-10-07T15:00:00.467Z,82.10
2017-10-07T15:03:11.636Z,82.50
2017-10-07T15:06:21.820Z,82.50
2017-10-07T15:09:32.980Z,83.50
2017-10-07T15:12:42.857Z,83.50
2017-10-07T15:15:52.875Z,83.60
2017-10-07T15:19:02.715Z,84.30
2017-10-07T15:22:13.306Z,84.70
2017-10-07T15:25:24.161Z,84.40
2017-10-07T15:28:34.684Z,84.30
2017-10-07T15:31:44.684Z,83.80
2017-10-07T15:34:54.575Z,82.80
2017-10-07T15:38:06.027Z,82.70
2017-10-07T15:41:17.115Z,82.80
2017-10-07T15:44:27.920Z,82.80
2017-10-07T15:47:38.836Z,83.00
2017-10-07T15:50:49.561Z,82.20
2017-10-07T15:54:00.375Z,83.10
2017-10-07T16:00:25.293Z,83.10
2017-10-07T16:03:36.096Z,83.20
2017-10-07T16:06:48.789Z,83.40
2017-10-07T16:10:00.369Z,83.60
2017-10-07T16:13:16.881Z,83.40
2017-10-07T16:16:35.703Z,82.60
2017-10-07T16:19:53.147Z,83.20
2017-10-07T16:23:03.915Z,83.50
2017-10-07T16:26:17.408Z,82.80
2017-10-07T16:29:27.776Z,84.50
2017-10-07T16:32:40.341Z,84.20
2017-10-07T16:35:53.432Z,84.70
2017-10-07T16:39:10.388Z,85.90
2017-10-07T16:42:20.653Z,85.30
2017-10-07T16:45:31.576Z,86.80
2017-10-07T16:48:41.543Z,86.80
2017-10-07T16:51:52.497Z,88.10
2017-10-07T16:55:02.583Z,88.10
2017-10-07T16:58:13.611Z,86.90
2017-10-07T17:01:24.874Z,88.50
2017-10-07T17:04:37.141Z,89.10
2017-10-07T17:07:48.481Z,89.40
2017-10-07T17:11:00.134Z,89.70
2017-10-07T17:14:13.205Z,89.40
2017-10-07T17:17:23.720Z,90.30
2017-10-07T17:20:34.449Z,90.30
2017-10-07T17:23:44.710Z,90.50
2017-10-07T17:26:57.794Z,90.30
2017-10-07T17:30:09.283Z,90.30
2017-10-07T17:33:19.905Z,89.80
2017-10-07T17:36:30.572Z,90.10
2017-10-07T17:39:40.425Z,90.40
2017-10-07T17:42:50.361Z,90.10
2017-10-07T17:46:06.122Z,90.20
2017-10-07T17:49:19.353Z,90.60
2017-10-07T17:52:35.722Z,90.60
2017-10-07T17:55:51.768Z,90.50
2017-10-07T17:59:08.013Z,90.50
2017-10-07T18:02:18.733Z,90.20
2017-10-07T18:05:28.625Z,90.40
2017-10-07T18:08:39.400Z,90.50
2017-10-07T18:11:49.426Z,90.50
2017-10-07T18:15:00.339Z,90.50
2017-10-07T18:18:11.440Z,90.90
2017-10-07T18:21:23.054Z,91.10
2017-10-07T18:24:33.235Z,91.60
2017-10-07T18:27:43.478Z,91.60
2017-10-07T18:30:53.885Z,92.00
2017-10-07T18:34:03.849Z,92.50
2017-10-07T18:37:14.588Z,92.30
2017-10-07T18:40:25.454Z,92.30
2017-10-07T18:43:35.366Z,92.90
2017-10-07T18:46:45.458Z,93.10
2017-10-07T18:49:55.764Z,93.30
2017-10-07T18:53:06.468Z,92.80
2017-10-07T18:56:17.659Z,92.90
2017-10-07T18:59:29.180Z,92.80
2017-10-07T19:02:39.531Z,92.70
2017-10-07T19:05:50.714Z,92.40
2017-10-07T19:09:02.261Z,92.00
2017-10-07T19:12:12.847Z,92.00
2017-10-07T19:15:23.537Z,92.10
2017-10-07T19:18:33.456Z,91.80
2017-10-07T19:21:43.965Z,92.10
2017-10-07T19:24:53.989Z,92.00
2017-10-07T19:28:05.601Z,91.50
2017-10-07T19:31:15.700Z,91.50
2017-10-07T19:34:25.602Z,91.30
2017-10-07T19:37:35.421Z,91.40
2017-10-07T19:40:45.485Z,91.40
2017-10-07T19:43:56.226Z,91.50
2017-10-07T19:47:06.934Z,91.10
2017-10-07T19:50:17.732Z,91.30
2017-10-07T19:53:28.483Z,91.10
2017-10-07T19:56:39.152Z,91.20
2017-10-07T19:59:49.259Z,91.20
2017-10-07T20:03:00.293Z,91.10
2017-10-07T20:06:10.797Z,91.20
2017-10-07T20:09:21.656Z,91.40
2017-10-07T20:12:32.430Z,92.00
2017-10-07T20:15:42.314Z,92.80
2017-10-07T20:18:52.026Z,93.10
2017-10-07T20:22:02.068Z,93.40
2017-10-07T20:25:15.233Z,93.80
2017-10-07T20:28:25.790Z,93.80
2017-10-07T20:31:39.650Z,94.30
2017-10-07T20:34:50.235Z,94.30
2017-10-07T20:38:01.182Z,94.30
2017-10-07T20:41:12.128Z,94.70
2017-10-07T20:44:26.026Z,94.80
2017-10-07T20:47:37.375Z,94.80
2017-10-07T20:50:51.021Z,94.60
2017-10-07T20:54:08.078Z,94.40
2017-10-07T20:57:18.259Z,94.90
2017-10-07T21:00:28.998Z,94.80
2017-10-07T21:03:45.384Z,94.70
2017-10-07T21:06:55.954Z,94.70
2017-10-07T21:10:09.101Z,94.60
2017-10-07T21:13:20.286Z,94.60
2017-10-07T21:16:30.290Z,94.70
2017-10-07T21:19:44.611Z,95.00
2017-10-07T21:22:58.317Z,95.00
2017-10-07T21:26:09.105Z,94.90
2017-10-07T21:29:23.000Z,94.90
2017-10-07T21:32:33.698Z,94.90
2017-10-07T21:38:57.337Z,94.90
2017-10-07T21:42:07.279Z,95.10
2017-10-07T21:45:18.272Z,95.20
2017-10-07T21:48:29.440Z,95.60
2017-10-07T21:51:39.739Z,95.60
2017-10-07T21:54:49.969Z,95.50
2017-10-07T21:58:00.272Z,95.30
2017-10-07T22:01:10.994Z,95.80
2017-10-07T22:04:22.577Z,95.50
2017-10-07T22:07:32.477Z,95.70
2017-10-07T22:10:43.393Z,95.70
2017-10-07T22:13:54.125Z,95.80
2017-10-07T22:17:05.429Z,95.90
2017-10-07T22:20:17.172Z,95.40
2017-10-07T22:23:27.383Z,95.40
2017-10-07T22:26:38.230Z,95.30
2017-10-07T22:29:48.965Z,95.60
2017-10-07T22:32:58.949Z,95.60
2017-10-07T22:36:08.894Z,95.80
2017-10-07T22:39:19.493Z,95.90
2017-10-07T22:42:29.522Z,96.00
2017-10-07T22:45:40.566Z,95.80
2017-10-07T22:48:50.930Z,96.00
2017-10-07T22:52:00.899Z,95.50
2017-10-07T22:55:13.122Z,95.70
2017-10-07T22:58:25.578Z,95.80
2017-10-07T23:01:36.529Z,99.90
2017-10-07T23:07:58.546Z,95.70
2017-10-07T23:11:09.633Z,95.70
2017-10-07T23:14:20.027Z,96.00
2017-10-07T23:17:32.404Z,95.50
2017-10-07T23:20:42.210Z,95.80
2017-10-07T23:23:53.636Z,95.80
2017-10-07T23:27:03.771Z,95.80
2017-10-07T23:30:14.510Z,95.80
2017-10-07T23:33:25.226Z,95.90
2017-10-07T23:36:35.048Z,95.80
2017-10-07T23:39:47.014Z,95.70
2017-10-07T23:42:58.069Z,95.90
2017-10-07T23:46:08.189Z,96.00
2017-10-07T23:49:18.070Z,95.90
2017-10-07T23:52:27.854Z,96.00
2017-10-07T23:55:37.901Z,95.90
2017-10-07T23:58:48.833Z,96.00
